Cooktown, Kentucky
Current Conditions -  °F | °C
As of 11:35 AM on Thursday 23 Oct 2014 (Local Time) from KGLW Reporting Station
Clear Clear  
Wind Chill: 57°   Ceiling: Unl
Heat Index: 57°   Visibility: 10mi
Dew Point: 41°   Wind: 0mph
Humidity: 56%   Direction: NA
Pressure: 30.22"   Gusts: NA
Location:  36.8194°N, 85.9936°W
Report Text: KGLW 231635Z AUTO 00000KT 10SM CLR 14/05 A3022 RMK AO2 T01380051
Loading
Personal Weather Stations






























Interactive Weather Map
Tropical Storm Tracking
New forecast layout! Learn more

10-Day Weather Forecast

Advertisements
Track Severe Weather on mobile